createdAt,value
2018-04-24T00:02:34.178Z,19.51
2018-04-24T00:17:37.301Z,19.43
2018-04-24T00:32:35.250Z,19.33
2018-04-24T00:47:37.204Z,19.19
2018-04-24T01:02:34.936Z,19.05
2018-04-24T01:17:36.563Z,19.07
2018-04-24T01:32:34.543Z,18.95
2018-04-24T01:47:35.499Z,18.87
2018-04-24T02:02:35.738Z,18.72
2018-04-24T02:17:37.804Z,18.64
2018-04-24T02:32:34.819Z,18.55
2018-04-24T02:47:36.729Z,18.39
2018-04-24T03:02:35.486Z,18.01
2018-04-24T03:17:38.168Z,17.28
2018-04-24T03:32:35.106Z,16.96
2018-04-24T03:47:35.073Z,16.86
2018-04-24T04:02:37.063Z,18.98
2018-04-24T04:17:46.035Z,20.47
2018-04-24T04:32:35.186Z,20.60
2018-04-24T04:47:36.139Z,20.59
2018-04-24T05:02:37.301Z,21.24
2018-04-24T05:17:35.649Z,22.14
2018-04-24T05:32:34.851Z,23.45
2018-04-24T05:47:37.567Z,24.39
2018-04-24T06:02:36.597Z,25.26
2018-04-24T06:17:35.960Z,26.00
2018-04-24T06:32:34.948Z,27.08
2018-04-24T06:47:36.973Z,28.03
2018-04-24T07:02:35.274Z,28.82
2018-04-24T07:17:34.750Z,29.38
2018-04-24T07:32:35.123Z,29.80
2018-04-24T07:47:36.086Z,30.45
2018-04-24T08:02:35.070Z,31.21
2018-04-24T08:17:37.823Z,31.72
2018-04-24T08:32:36.936Z,31.91
2018-04-24T08:47:34.396Z,32.24
2018-04-24T09:02:34.473Z,32.45
2018-04-24T09:17:40.772Z,32.79
2018-04-24T09:32:36.770Z,33.34
2018-04-24T09:47:46.240Z,34.22
2018-04-24T10:02:34.683Z,34.64
2018-04-24T10:17:40.032Z,34.70
2018-04-24T10:32:35.962Z,34.79
2018-04-24T10:47:35.983Z,34.97
2018-04-24T11:02:35.945Z,34.90
2018-04-24T11:17:37.318Z,34.80
2018-04-24T11:32:34.797Z,34.41
2018-04-24T11:47:35.301Z,34.03
2018-04-24T12:02:35.257Z,33.69
2018-04-24T12:17:36.544Z,33.09
2018-04-24T12:32:34.590Z,32.39
2018-04-24T12:47:36.491Z,31.46
2018-04-24T13:02:36.241Z,30.96
2018-04-24T13:17:36.903Z,30.38
2018-04-24T13:32:35.341Z,30.05
2018-04-24T13:47:37.348Z,29.49
2018-04-24T14:02:34.699Z,29.13
2018-04-24T14:17:35.688Z,28.86
2018-04-24T14:32:44.677Z,28.52
2018-04-24T14:47:35.034Z,28.06
2018-04-24T15:02:34.495Z,27.77
2018-04-24T15:17:33.901Z,27.62
2018-04-24T15:32:33.326Z,27.55
2018-04-24T15:47:37.281Z,27.37
2018-04-24T16:02:35.208Z,27.26
2018-04-24T16:17:34.429Z,27.08
2018-04-24T16:32:34.387Z,26.72
2018-04-24T16:47:33.325Z,26.21
2018-04-24T17:02:36.034Z,25.84
2018-04-24T17:17:36.690Z,25.64
2018-04-24T17:32:34.707Z,25.17
2018-04-24T17:47:34.892Z,24.47
2018-04-24T18:02:34.623Z,23.91
2018-04-24T18:17:37.278Z,23.56
2018-04-24T18:32:37.158Z,23.27
2018-04-24T18:47:35.164Z,22.97
2018-04-24T19:02:38.017Z,22.75
2018-04-24T19:17:34.543Z,22.58
2018-04-24T19:32:36.497Z,22.43
2018-04-24T20:02:34.470Z,22.37
2018-04-24T20:17:34.607Z,22.34
2018-04-24T20:32:36.786Z,22.13
2018-04-24T20:47:34.589Z,21.69
2018-04-24T21:02:36.726Z,21.40
2018-04-24T21:17:36.884Z,21.22
2018-04-24T21:32:34.877Z,21.14
2018-04-24T21:47:38.102Z,20.98
2018-04-24T22:02:36.186Z,20.82
2018-04-24T22:17:34.375Z,20.80
2018-04-24T22:32:37.075Z,20.93
2018-04-24T22:47:34.346Z,20.95
2018-04-24T23:02:34.066Z,20.75
2018-04-24T23:17:51.637Z,20.48
2018-04-24T23:32:36.703Z,20.32
2018-04-24T23:47:35.645Z,20.28
